Time;durP1;ratioP1;P1;durP2;ratioP2;P2;SDS_P1;SDS_P2;PMS_P1;PMS_P2;Temp;Humidity;BMP_temperature;BMP_pressure;BME280_temperature;BME280_humidity;BME280_pressure;Samples;Min_cycle;Max_cycle;Signal;HPM_P1;HPM_P2
2024/01/20 00:00:04;;;;;;;9.23;2.92;;;1.70;99.90;;;;;;4961256;28;20142;-83
2024/01/20 00:02:30;;;;;;;10.07;3.10;;;1.80;99.90;;;;;;4950862;28;20046;-83
2024/01/20 00:04:55;;;;;;;8.95;2.80;;;1.70;99.90;;;;;;4994357;28;20499;-83
2024/01/20 00:07:21;;;;;;;10.93;3.10;;;1.70;99.90;;;;;;4977159;28;20063;-83
2024/01/20 00:09:47;;;;;;;10.60;3.33;;;1.60;99.90;;;;;;4961185;28;20043;-83
2024/01/20 00:12:12;;;;;;;12.45;3.28;;;1.70;99.90;;;;;;4961561;28;20124;-83
2024/01/20 00:14:38;;;;;;;9.15;4.13;;;1.90;99.90;;;;;;4963717;28;20041;-83
2024/01/20 00:17:04;;;;;;;9.45;3.55;;;2.30;99.90;;;;;;4959579;28;20559;-83
2024/01/20 00:19:30;;;;;;;11.75;3.60;;;;;;;;;;4963708;28;20031;-82
2024/01/20 00:21:56;;;;;;;9.80;3.80;;;1.50;99.90;;;;;;4980926;28;20408;-83
2024/01/20 00:24:21;;;;;;;12.35;4.30;;;1.50;99.90;;;;;;4956889;28;20042;-83
2024/01/20 00:26:47;;;;;;;10.20;3.88;;;1.40;99.90;;;;;;4940411;28;20049;-83
2024/01/20 00:29:13;;;;;;;11.88;3.97;;;3.00;99.90;;;;;;4957526;28;20058;-83
2024/01/20 00:31:39;;;;;;;9.07;3.65;;;1.40;99.90;;;;;;4999330;28;20510;-82
2024/01/20 00:34:04;;;;;;;8.70;3.75;;;1.40;99.90;;;;;;4969180;28;20488;-83
2024/01/20 00:36:30;;;;;;;10.65;4.18;;;1.40;99.90;;;;;;4961889;28;20122;-83
2024/01/20 00:38:56;;;;;;;9.20;3.75;;;1.40;99.90;;;;;;4936241;28;20418;-83
2024/01/20 00:41:22;;;;;;;11.77;4.45;;;1.80;99.90;;;;;;4964815;28;20073;-83
2024/01/20 00:43:48;;;;;;;9.73;4.18;;;1.30;99.90;;;;;;4992760;28;20289;-83
2024/01/20 00:46:14;;;;;;;12.30;4.30;;;2.10;99.90;;;;;;4978162;28;20573;-83
2024/01/20 00:48:39;;;;;;;9.73;4.25;;;3.20;99.90;;;;;;4951173;28;20396;-83
2024/01/20 00:51:05;;;;;;;9.23;4.07;;;1.30;99.90;;;;;;4979608;28;20203;-82
2024/01/20 00:53:31;;;;;;;13.45;4.38;;;1.80;99.90;;;;;;5033464;28;20053;-82
2024/01/20 00:55:56;;;;;;;11.82;4.30;;;1.40;99.90;;;;;;5012033;28;20407;-83
2024/01/20 00:58:22;;;;;;;9.20;4.10;;;1.40;99.90;;;;;;4995543;28;20061;-83
2024/01/20 01:00:48;;;;;;;10.95;5.32;;;2.00;99.90;;;;;;5028407;28;20045;-83
2024/01/20 01:03:13;;;;;;;12.75;4.47;;;1.30;99.90;;;;;;4999644;28;20037;-83
2024/01/20 01:05:39;;;;;;;11.05;4.60;;;1.80;99.90;;;;;;4952151;28;20038;-83
2024/01/20 01:08:05;;;;;;;10.30;4.50;;;1.90;99.90;;;;;;4967585;28;20074;-83
2024/01/20 01:10:31;;;;;;;13.98;5.00;;;2.30;99.90;;;;;;5012169;28;20423;-83
2024/01/20 01:12:56;;;;;;;9.75;4.28;;;1.30;99.90;;;;;;4969207;28;20050;-83
2024/01/20 01:15:22;;;;;;;13.13;4.97;;;1.40;99.90;;;;;;5018341;28;20635;-82
2024/01/20 01:17:48;;;;;;;9.40;4.40;;;1.50;99.90;;;;;;4997953;28;20487;-83
2024/01/20 01:20:13;;;;;;;12.52;4.82;;;2.00;99.90;;;;;;4952735;28;20673;-82
2024/01/20 01:22:39;;;;;;;11.00;4.40;;;1.50;99.90;;;;;;4994303;28;20069;-83
2024/01/20 01:25:05;;;;;;;11.73;4.78;;;2.40;99.90;;;;;;4998327;28;20458;-83
2024/01/20 01:27:31;;;;;;;13.05;5.10;;;1.50;99.90;;;;;;5010756;28;20042;-83
2024/01/20 01:29:57;;;;;;;12.35;4.80;;;1.50;99.90;;;;;;4969499;28;20488;-83
2024/01/20 01:32:25;;;;;;;11.10;4.75;;;;;;;;;;4985010;28;20078;-83
2024/01/20 01:34:50;;;;;;;12.00;4.70;;;1.40;99.90;;;;;;4975968;28;20062;-83
2024/01/20 01:37:16;;;;;;;12.35;5.00;;;1.70;99.90;;;;;;5002146;28;20063;-82
2024/01/20 01:39:42;;;;;;;12.57;5.20;;;1.40;99.90;;;;;;5009708;28;20496;-82
2024/01/20 01:42:09;;;;;;;9.88;4.88;;;2.50;99.90;;;;;;4949776;28;20043;-82
2024/01/20 01:44:35;;;;;;;12.30;4.93;;;2.40;99.90;;;;;;5000505;28;20089;-83
2024/01/20 01:47:01;;;;;;;12.27;5.18;;;1.40;99.90;;;;;;4945356;28;20063;-83
2024/01/20 01:49:26;;;;;;;11.75;5.00;;;2.10;99.90;;;;;;4947850;28;20084;-83
2024/01/20 01:51:53;;;;;;;12.13;4.85;;;1.40;99.90;;;;;;5013013;28;20526;-82
2024/01/20 01:54:20;;;;;;;10.52;5.00;;;2.20;99.90;;;;;;4962101;28;20031;-82
2024/01/20 01:56:49;;;;;;;13.95;5.50;;;1.90;99.90;;;;;;4996458;28;20039;-83
2024/01/20 01:59:15;;;;;;;12.93;5.68;;;1.40;99.90;;;;;;5002876;28;20049;-83
2024/01/20 02:01:41;;;;;;;11.20;5.03;;;1.90;99.90;;;;;;4971342;28;20041;-83
2024/01/20 02:04:07;;;;;;;10.75;5.35;;;2.80;99.90;;;;;;4941601;28;20088;-83
2024/01/20 02:06:33;;;;;;;12.50;5.45;;;1.40;99.90;;;;;;5017801;28;20053;-82
2024/01/20 02:08:59;;;;;;;9.85;5.03;;;1.40;99.90;;;;;;4969858;28;20030;-83
2024/01/20 02:11:25;;;;;;;12.18;5.35;;;1.40;99.90;;;;;;4970524;28;20045;-82
2024/01/20 02:13:51;;;;;;;13.23;6.05;;;1.40;99.90;;;;;;5030995;28;20125;-82
2024/01/20 02:16:17;;;;;;;12.63;5.63;;;1.50;99.90;;;;;;5015356;28;20122;-82
2024/01/20 02:18:43;;;;;;;12.93;5.05;;;1.40;99.90;;;;;;4971022;28;20076;-83
2024/01/20 02:21:08;;;;;;;12.35;5.38;;;2.00;99.90;;;;;;4986629;28;20395;-83
2024/01/20 02:23:39;;;;;;;12.88;5.25;;;1.40;99.90;;;;;;4967934;28;20074;-83
2024/01/20 02:26:05;;;;;;;13.55;6.22;;;2.10;99.90;;;;;;5003534;28;20045;-82
2024/01/20 02:28:31;;;;;;;11.90;5.10;;;1.40;99.90;;;;;;4938122;28;20057;-83
2024/01/20 02:30:57;;;;;;;12.00;6.10;;;2.80;99.90;;;;;;4986079;28;20038;-83
2024/01/20 02:33:22;;;;;;;12.10;6.22;;;2.00;99.90;;;;;;5003086;28;20108;-83
2024/01/20 02:35:48;;;;;;;11.98;5.53;;;1.30;99.90;;;;;;5020134;28;20078;-83
2024/01/20 02:38:14;;;;;;;10.55;5.40;;;1.30;99.90;;;;;;5016998;28;20049;-83
2024/01/20 02:40:39;;;;;;;11.82;5.88;;;1.20;99.90;;;;;;5002726;28;20527;-83
2024/01/20 02:43:05;;;;;;;14.00;6.63;;;2.10;99.90;;;;;;4952915;28;20046;-82
2024/01/20 02:45:31;;;;;;;12.63;6.03;;;1.40;99.90;;;;;;5002381;28;20038;-83
2024/01/20 02:47:57;;;;;;;12.75;5.70;;;1.30;99.90;;;;;;4984058;28;20674;-83
2024/01/20 02:50:23;;;;;;;10.50;5.60;;;2.00;99.90;;;;;;4954539;28;20046;-82
2024/01/20 02:52:50;;;;;;;12.57;5.90;;;2.20;99.90;;;;;;5009700;28;20068;-82
2024/01/20 02:55:15;;;;;;;12.27;5.97;;;1.20;99.90;;;;;;5015634;28;20061;-82
2024/01/20 02:57:41;;;;;;;14.43;6.60;;;1.20;99.90;;;;;;4986869;28;20042;-82
2024/01/20 03:00:08;;;;;;;12.88;6.50;;;1.70;99.90;;;;;;4955213;28;20050;-82
2024/01/20 03:02:33;;;;;;;14.75;6.82;;;1.20;99.90;;;;;;4978103;28;20035;-82
2024/01/20 03:05:00;;;;;;;13.40;6.28;;;1.10;99.90;;;;;;4996839;28;20522;-82
2024/01/20 03:07:26;;;;;;;13.32;6.97;;;1.50;99.90;;;;;;5016096;28;20261;-82
2024/01/20 03:09:52;;;;;;;14.40;6.35;;;1.80;99.90;;;;;;4985597;28;20307;-82
2024/01/20 03:12:17;;;;;;;15.55;6.60;;;1.00;99.90;;;;;;4985371;28;20522;-82
2024/01/20 03:14:43;;;;;;;15.52;7.32;;;1.00;99.90;;;;;;5014145;28;20109;-82
2024/01/20 03:17:09;;;;;;;13.35;7.55;;;0.90;99.90;;;;;;5002455;28;20042;-82
2024/01/20 03:19:35;;;;;;;14.32;7.47;;;0.90;99.90;;;;;;5015925;28;20150;-82
2024/01/20 03:22:00;;;;;;;13.20;7.15;;;2.40;99.90;;;;;;4954624;28;20492;-82
2024/01/20 03:24:26;;;;;;;14.55;8.05;;;1.00;99.90;;;;;;4969487;28;20046;-82
2024/01/20 03:26:54;;;;;;;14.45;7.57;;;2.30;99.90;;;;;;5018362;28;20106;-82
2024/01/20 03:29:20;;;;;;;16.25;8.32;;;1.90;99.90;;;;;;4988139;28;20046;-82
2024/01/20 03:31:46;;;;;;;15.20;8.18;;;1.70;99.90;;;;;;4973342;28;20097;-82
2024/01/20 03:34:12;;;;;;;15.27;8.32;;;2.20;99.90;;;;;;5013922;28;20058;-82
2024/01/20 03:36:38;;;;;;;15.77;9.02;;;0.90;99.90;;;;;;4987495;28;20038;-82
2024/01/20 03:39:04;;;;;;;17.02;8.90;;;1.40;99.90;;;;;;4951478;28;20043;-82
2024/01/20 03:41:29;;;;;;;15.68;8.65;;;1.80;99.90;;;;;;5008506;28;20381;-82
2024/01/20 03:43:56;;;;;;;15.13;8.80;;;0.90;99.90;;;;;;4986103;28;20083;-82
2024/01/20 03:46:23;;;;;;;15.35;9.13;;;1.40;99.90;;;;;;4998816;28;20452;-82
2024/01/20 03:48:49;;;;;;;16.98;8.98;;;2.40;99.90;;;;;;4996502;28;20479;-83
2024/01/20 03:51:15;;;;;;;16.33;9.85;;;0.90;99.90;;;;;;5016951;28;20038;-82
2024/01/20 03:53:40;;;;;;;18.88;9.88;;;1.20;99.90;;;;;;5001338;28;20124;-82
2024/01/20 03:56:06;;;;;;;15.80;8.85;;;;;;;;;;5013243;28;20040;-82
2024/01/20 03:58:32;;;;;;;14.80;8.85;;;0.90;99.90;;;;;;5001056;28;20042;-82
2024/01/20 04:00:58;;;;;;;15.82;9.88;;;2.50;99.90;;;;;;5001695;28;20392;-82
2024/01/20 04:03:24;;;;;;;16.08;9.88;;;1.00;99.90;;;;;;5031278;28;20402;-83
2024/01/20 04:05:49;;;;;;;15.85;9.40;;;2.10;99.90;;;;;;5000728;28;20041;-82
2024/01/20 04:08:15;;;;;;;15.88;9.50;;;1.60;99.90;;;;;;5015099;28;20050;-82
2024/01/20 04:10:41;;;;;;;18.08;9.55;;;0.90;99.90;;;;;;4937231;28;20097;-82
2024/01/20 04:13:06;;;;;;;16.67;9.18;;;0.80;99.90;;;;;;4978781;28;20495;-82
2024/01/20 04:15:32;;;;;;;18.25;9.93;;;0.90;99.90;;;;;;4992171;28;20638;-82
2024/01/20 04:17:58;;;;;;;19.50;9.95;;;2.50;99.90;;;;;;4999967;28;20084;-82
2024/01/20 04:20:24;;;;;;;17.08;9.65;;;0.90;99.90;;;;;;4935959;28;20065;-82
2024/01/20 04:22:49;;;;;;;16.45;9.52;;;0.90;99.90;;;;;;4978719;28;20050;-82
2024/01/20 04:25:15;;;;;;;18.08;9.63;;;0.80;99.90;;;;;;5012836;28;20046;-82
2024/01/20 04:27:41;;;;;;;16.60;9.55;;;0.90;99.90;;;;;;4977908;28;20456;-83
2024/01/20 04:30:08;;;;;;;18.55;10.77;;;0.90;99.90;;;;;;5008916;28;20136;-82
2024/01/20 04:32:34;;;;;;;17.35;10.38;;;0.90;99.90;;;;;;4970981;28;20050;-82
2024/01/20 04:35:00;;;;;;;19.52;9.77;;;2.50;99.90;;;;;;4985089;28;20092;-82
2024/01/20 04:37:25;;;;;;;19.30;10.48;;;0.90;99.90;;;;;;4984766;28;20045;-82
2024/01/20 04:39:51;;;;;;;15.18;9.65;;;1.40;99.90;;;;;;4957213;28;20625;-83
2024/01/20 04:42:17;;;;;;;17.65;10.38;;;1.00;99.90;;;;;;5015036;28;20084;-82
2024/01/20 04:44:42;;;;;;;18.02;10.63;;;1.40;99.90;;;;;;4982946;28;20506;-82
2024/01/20 04:47:09;;;;;;;16.50;10.75;;;0.90;99.90;;;;;;4968307;28;20042;-82
2024/01/20 04:49:34;;;;;;;19.70;10.25;;;2.30;99.90;;;;;;4961864;28;20042;-82
2024/01/20 04:52:01;;;;;;;19.15;10.52;;;2.40;99.90;;;;;;4942882;28;20086;-83
2024/01/20 04:54:28;;;;;;;15.70;10.35;;;1.60;99.90;;;;;;4985472;28;20077;-82
2024/01/20 04:56:55;;;;;;;17.38;10.43;;;2.00;99.90;;;;;;4966678;28;20042;-82
2024/01/20 04:59:21;;;;;;;17.70;10.88;;;0.90;99.90;;;;;;4987159;28;20042;-83
2024/01/20 05:01:48;;;;;;;16.60;10.63;;;1.10;99.90;;;;;;4965399;28;20038;-82
2024/01/20 05:04:14;;;;;;;18.02;10.63;;;1.40;99.90;;;;;;4983968;28;20122;-82
2024/01/20 05:06:40;;;;;;;19.55;11.00;;;2.40;99.90;;;;;;5013223;28;20034;-82
2024/01/20 05:09:05;;;;;;;18.08;10.35;;;1.90;99.90;;;;;;4951441;28;20393;-82
2024/01/20 05:11:31;;;;;;;18.00;10.57;;;2.30;99.90;;;;;;5017620;28;20171;-82
2024/01/20 05:13:57;;;;;;;18.67;11.15;;;0.60;99.90;;;;;;4984747;28;20057;-82
2024/01/20 05:16:23;;;;;;;18.48;11.15;;;1.40;99.90;;;;;;5000772;28;20054;-82
2024/01/20 05:18:48;;;;;;;19.35;11.13;;;1.40;99.90;;;;;;4950634;28;20127;-82
2024/01/20 05:21:17;;;;;;;19.40;11.32;;;0.50;99.90;;;;;;4984743;28;20042;-82
2024/01/20 05:23:43;;;;;;;20.27;10.68;;;2.10;99.90;;;;;;5009453;28;20377;-82
2024/01/20 05:26:09;;;;;;;18.95;10.98;;;1.30;99.90;;;;;;4961816;28;20038;-82
2024/01/20 05:28:34;;;;;;;18.25;12.32;;;0.40;99.90;;;;;;4998500;28;20038;-82
2024/01/20 05:31:00;;;;;;;16.98;10.52;;;0.40;99.90;;;;;;4953384;28;20070;-83
2024/01/20 05:33:26;;;;;;;21.65;11.93;;;0.50;99.90;;;;;;5015584;28;20042;-82
2024/01/20 05:35:51;;;;;;;20.15;11.35;;;0.50;99.90;;;;;;4986109;28;20392;-82
2024/01/20 05:38:17;;;;;;;17.45;11.00;;;0.40;99.90;;;;;;4986089;28;20055;-82
2024/01/20 05:40:43;;;;;;;18.80;11.57;;;0.40;99.90;;;;;;4984663;28;20436;-82
2024/01/20 05:43:08;;;;;;;18.58;11.13;;;0.40;99.90;;;;;;4949042;28;20046;-82
2024/01/20 05:45:34;;;;;;;18.10;11.25;;;1.90;99.90;;;;;;4979364;28;20480;-82
2024/01/20 05:48:00;;;;;;;18.60;11.85;;;0.40;99.90;;;;;;4965184;28;20038;-82
2024/01/20 05:50:25;;;;;;;21.58;12.13;;;0.40;99.90;;;;;;4998222;28;20042;-82
2024/01/20 05:52:52;;;;;;;21.92;12.65;;;0.10;99.90;;;;;;4954634;28;20432;-82
2024/01/20 05:55:17;;;;;;;21.73;13.18;;;0.90;99.90;;;;;;4967405;28;20507;-82
2024/01/20 05:57:43;;;;;;;20.13;12.32;;;0.70;99.90;;;;;;4951228;28;20067;-82
2024/01/20 06:00:09;;;;;;;18.42;11.30;;;0.20;99.90;;;;;;4984849;28;20042;-82
2024/01/20 06:02:36;;;;;;;23.15;12.35;;;0.10;99.90;;;;;;5019729;28;20038;-82
2024/01/20 06:05:02;;;;;;;21.70;12.55;;;0.30;99.90;;;;;;4979256;28;20480;-82
2024/01/20 06:07:27;;;;;;;20.92;12.63;;;0.10;99.90;;;;;;4969666;28;20069;-83
2024/01/20 06:09:53;;;;;;;22.45;12.77;;;0.60;99.90;;;;;;4970085;28;20027;-82
2024/01/20 06:12:19;;;;;;;20.05;12.38;;;0.20;99.90;;;;;;5004016;28;20225;-82
2024/01/20 06:14:45;;;;;;;21.45;12.73;;;0.10;99.90;;;;;;4932658;28;20117;-83
2024/01/20 06:17:11;;;;;;;22.48;12.40;;;1.80;99.90;;;;;;5002645;28;20463;-83
2024/01/20 06:19:37;;;;;;;22.55;13.13;;;1.00;99.90;;;;;;4963042;28;20054;-83
2024/01/20 06:22:02;;;;;;;21.25;13.30;;;-1.10;99.90;;;;;;4964514;28;20101;-82
2024/01/20 06:24:30;;;;;;;23.00;12.60;;;0.00;99.90;;;;;;4955610;28;20050;-82
2024/01/20 06:26:56;;;;;;;22.23;12.32;;;0.00;99.90;;;;;;5000756;28;20407;-82
2024/01/20 06:29:21;;;;;;;19.73;11.75;;;0.00;99.90;;;;;;4963686;28;20046;-82
2024/01/20 06:31:47;;;;;;;22.75;12.75;;;1.20;99.90;;;;;;4978101;28;20058;-82
2024/01/20 06:34:13;;;;;;;19.77;11.27;;;0.50;99.90;;;;;;4955419;28;20213;-82
2024/01/20 06:36:38;;;;;;;22.95;13.45;;;0.00;99.90;;;;;;4984990;28;20125;-82
2024/01/20 06:39:04;;;;;;;21.45;11.55;;;1.00;99.90;;;;;;4952630;28;20043;-82
2024/01/20 06:41:31;;;;;;;23.13;12.98;;;-0.10;99.90;;;;;;4975976;28;20045;-82
2024/01/20 06:43:57;;;;;;;23.48;12.63;;;1.10;99.90;;;;;;5004580;28;20048;-82
2024/01/20 06:46:23;;;;;;;24.13;12.23;;;0.00;99.90;;;;;;4966197;28;20118;-82
2024/01/20 06:48:50;;;;;;;24.73;12.57;;;-0.20;99.90;;;;;;4993967;28;20121;-82
2024/01/20 06:51:16;;;;;;;32.13;14.32;;;0.40;99.90;;;;;;4971605;28;20046;-82
2024/01/20 06:53:43;;;;;;;22.45;12.60;;;0.90;99.90;;;;;;5002892;28;21655;-82
2024/01/20 06:56:08;;;;;;;24.77;13.18;;;0.30;99.90;;;;;;4944302;28;20464;-82
2024/01/20 06:58:35;;;;;;;25.65;13.55;;;-0.20;99.90;;;;;;4993912;28;20175;-82
2024/01/20 07:01:00;;;;;;;24.63;13.98;;;0.40;99.90;;;;;;4983165;28;20042;-82
2024/01/20 07:03:26;;;;;;;24.02;13.40;;;-0.20;99.90;;;;;;4953143;28;20395;-82
2024/01/20 07:05:52;;;;;;;23.42;13.82;;;-0.10;99.90;;;;;;4986783;28;20049;-82
2024/01/20 07:08:18;;;;;;;27.52;14.07;;;-0.20;99.90;;;;;;4951847;28;20039;-82
2024/01/20 07:10:44;;;;;;;23.63;13.25;;;-0.10;99.90;;;;;;4929411;28;20034;-82
2024/01/20 07:13:10;;;;;;;28.48;14.02;;;0.50;99.90;;;;;;4953724;28;20184;-82
2024/01/20 07:15:35;;;;;;;23.00;12.98;;;1.50;99.90;;;;;;4986321;28;20096;-82
2024/01/20 07:18:03;;;;;;;25.52;13.95;;;-0.30;99.90;;;;;;4952007;28;20511;-82
2024/01/20 07:20:29;;;;;;;26.08;13.07;;;-0.20;99.90;;;;;;4963606;28;20076;-82
2024/01/20 07:22:55;;;;;;;22.98;13.55;;;0.90;99.90;;;;;;4983292;28;20550;-82
2024/01/20 07:25:20;;;;;;;23.90;13.43;;;-0.10;99.90;;;;;;4993259;28;20293;-82
2024/01/20 07:27:46;;;;;;;25.85;13.68;;;-0.20;99.90;;;;;;5002509;28;20035;-82
2024/01/20 07:30:12;;;;;;;24.40;12.88;;;-0.10;99.90;;;;;;4994115;28;20170;-83
2024/01/20 07:32:41;;;;;;;27.60;13.52;;;-0.10;99.90;;;;;;4983697;28;20049;-82
2024/01/20 07:35:08;;;;;;;26.50;14.05;;;-0.10;99.90;;;;;;4999866;28;20144;-82
2024/01/20 07:37:36;;;;;;;27.75;14.57;;;-0.10;99.90;;;;;;4962160;28;20034;-82
2024/01/20 07:40:03;;;;;;;23.92;12.10;;;-0.10;99.90;;;;;;5005667;28;20038;-83
2024/01/20 07:42:29;;;;;;;24.17;12.98;;;0.00;99.90;;;;;;4965419;28;20129;-83
2024/01/20 07:44:55;;;;;;;23.90;12.52;;;2.00;99.90;;;;;;4956185;28;20041;-83
2024/01/20 07:47:21;;;;;;;25.77;12.90;;;0.00;99.90;;;;;;4974798;28;20043;-83
2024/01/20 07:49:46;;;;;;;25.75;13.18;;;0.00;99.90;;;;;;4972695;28;20037;-83
2024/01/20 07:52:12;;;;;;;25.38;12.77;;;0.40;99.90;;;;;;4957148;28;20306;-83
2024/01/20 07:54:38;;;;;;;23.45;12.73;;;1.60;99.90;;;;;;5022409;28;20045;-83
2024/01/20 07:57:04;;;;;;;22.60;12.05;;;0.90;99.90;;;;;;4954595;28;20381;-83
2024/01/20 07:59:29;;;;;;;23.90;12.32;;;-1.50;99.90;;;;;;5004965;28;20050;-83
2024/01/20 08:01:55;;;;;;;23.65;13.10;;;0.40;99.90;;;;;;4972985;28;20043;-83
2024/01/20 08:04:21;;;;;;;21.25;11.85;;;1.20;99.90;;;;;;4988051;28;20492;-84
2024/01/20 08:06:47;;;;;;;21.50;11.25;;;0.50;99.90;;;;;;4986144;28;20046;-83
2024/01/20 08:09:12;;;;;;;22.27;12.23;;;2.20;99.90;;;;;;4988588;28;20038;-83
2024/01/20 08:11:38;;;;;;;25.08;12.60;;;1.70;99.90;;;;;;5004836;28;20635;-83
2024/01/20 08:14:04;;;;;;;26.50;13.02;;;1.50;99.90;;;;;;4989654;28;20047;-83
2024/01/20 08:16:30;;;;;;;22.80;13.05;;;0.80;99.90;;;;;;4989027;28;20125;-83
2024/01/20 08:18:56;;;;;;;23.48;12.55;;;0.80;99.90;;;;;;4989437;28;20554;-83
2024/01/20 08:21:21;;;;;;;22.60;12.48;;;0.90;99.90;;;;;;4953701;28;20057;-84
2024/01/20 08:23:48;;;;;;;26.92;13.05;;;1.50;99.90;;;;;;4984119;28;20050;-83
2024/01/20 08:26:14;;;;;;;23.35;12.65;;;1.70;99.90;;;;;;4951693;28;20089;-83
2024/01/20 08:28:40;;;;;;;23.83;13.05;;;1.00;99.90;;;;;;4989170;28;20046;-83
2024/01/20 08:31:05;;;;;;;22.38;12.20;;;1.60;99.90;;;;;;5004944;28;20516;-82
2024/01/20 08:33:31;;;;;;;22.90;13.43;;;2.50;99.90;;;;;;4987980;28;20045;-83
2024/01/20 08:35:57;;;;;;;24.42;13.43;;;2.50;99.90;;;;;;5000376;28;20396;-83
2024/01/20 08:38:23;;;;;;;24.20;13.60;;;2.00;99.90;;;;;;4956027;28;20504;-83
2024/01/20 08:40:49;;;;;;;23.80;13.00;;;1.10;99.90;;;;;;4988434;28;20133;-83
2024/01/20 08:43:18;;;;;;;25.48;13.35;;;1.60;99.90;;;;;;4953226;28;20035;-83
2024/01/20 08:45:43;;;;;;;24.45;13.45;;;1.10;99.90;;;;;;4987007;28;20077;-83
2024/01/20 08:48:09;;;;;;;27.75;14.73;;;1.30;99.90;;;;;;4971525;28;20474;-83
2024/01/20 08:50:35;;;;;;;25.10;13.27;;;1.30;99.90;;;;;;4988960;28;20046;-82
2024/01/20 08:53:01;;;;;;;23.70;13.45;;;1.80;99.90;;;;;;5006162;28;20293;-82
2024/01/20 08:55:26;;;;;;;24.40;13.05;;;1.40;99.90;;;;;;4988638;28;20137;-82
2024/01/20 08:57:52;;;;;;;22.65;13.35;;;1.90;99.90;;;;;;4985147;28;20129;-82
2024/01/20 09:00:18;;;;;;;24.67;13.52;;;1.40;99.90;;;;;;4984638;28;20077;-82
2024/01/20 09:02:44;;;;;;;23.42;12.77;;;1.40;99.90;;;;;;4982856;28;20432;-83
2024/01/20 09:05:11;;;;;;;26.95;13.07;;;1.80;99.90;;;;;;4990339;28;20072;-83
2024/01/20 09:07:37;;;;;;;22.17;13.07;;;1.40;99.90;;;;;;4976381;28;20046;-83
2024/01/20 09:10:03;;;;;;;21.90;13.18;;;1.30;99.90;;;;;;4973155;28;20038;-82
2024/01/20 09:12:29;;;;;;;24.10;12.75;;;1.30;99.90;;;;;;4976210;28;20045;-82
2024/01/20 09:14:56;;;;;;;26.95;13.82;;;2.60;99.90;;;;;;4976641;28;20093;-82
2024/01/20 09:17:22;;;;;;;25.63;13.07;;;1.40;99.90;;;;;;4958331;28;20042;-82
2024/01/20 09:19:48;;;;;;;25.23;13.38;;;2.50;99.90;;;;;;4959956;28;20038;-83
2024/01/20 09:22:13;;;;;;;24.35;12.43;;;3.10;99.90;;;;;;4991544;28;20566;-84
2024/01/20 09:24:39;;;;;;;24.77;13.32;;;1.40;99.90;;;;;;4976528;28;20053;-83
2024/01/20 09:27:05;;;;;;;20.90;11.57;;;1.40;99.90;;;;;;4943988;28;20388;-83
2024/01/20 09:29:31;;;;;;;22.27;12.65;;;1.50;99.90;;;;;;4972446;28;20039;-83
2024/01/20 09:31:57;;;;;;;22.38;11.70;;;1.50;99.90;;;;;;5004122;28;20491;-83
2024/01/20 09:34:22;;;;;;;21.63;11.93;;;1.50;99.90;;;;;;4953562;28;20488;-83
2024/01/20 09:36:50;;;;;;;22.02;12.10;;;1.50;99.90;;;;;;4981605;28;20042;-83
2024/01/20 09:39:16;;;;;;;23.88;13.32;;;1.90;99.90;;;;;;4970583;28;20030;-83
2024/01/20 09:41:42;;;;;;;24.95;12.60;;;2.30;99.90;;;;;;4965985;28;20122;-83
2024/01/20 09:44:08;;;;;;;21.80;12.63;;;1.50;99.90;;;;;;4999754;28;20053;-83
2024/01/20 09:46:35;;;;;;;25.40;12.77;;;2.30;99.90;;;;;;4968878;28;20035;-84
2024/01/20 09:49:00;;;;;;;25.83;12.80;;;2.20;99.90;;;;;;4987952;28;20121;-84
2024/01/20 09:51:31;;;;;;;22.13;11.68;;;2.40;99.90;;;;;;5002296;28;20134;-83
2024/01/20 09:54:00;;;;;;;23.08;11.25;;;2.40;99.90;;;;;;4982434;28;20121;-84
2024/01/20 09:56:27;;;;;;;22.25;11.77;;;1.70;99.90;;;;;;4982848;28;20313;-84
2024/01/20 09:58:56;;;;;;;24.10;13.45;;;2.60;99.90;;;;;;4992671;28;20046;-84
2024/01/20 10:01:22;;;;;;;24.75;12.90;;;1.70;99.90;;;;;;4988403;28;20042;-84
2024/01/20 10:03:49;;;;;;;23.65;12.10;;;1.80;99.90;;;;;;4974491;28;20093;-84
2024/01/20 10:06:15;;;;;;;23.88;12.43;;;2.10;99.90;;;;;;4971388;28;20129;-84
2024/01/20 10:08:40;;;;;;;20.65;11.63;;;3.30;99.90;;;;;;4966020;28;20125;-83
2024/01/20 10:11:06;;;;;;;21.00;12.10;;;3.30;99.90;;;;;;4996357;28;20043;-83
2024/01/20 10:13:32;;;;;;;21.90;11.52;;;1.90;99.90;;;;;;5005154;28;20523;-83
2024/01/20 10:15:58;;;;;;;27.40;11.82;;;2.50;99.90;;;;;;5019120;28;20630;-84
2024/01/20 10:18:24;;;;;;;23.48;12.25;;;2.70;99.90;;;;;;4956835;28;20044;-83
2024/01/20 10:21:03;;;;;;;22.55;10.90;;;2.00;99.90;;;;;;4953182;28;20456;-84
2024/01/20 10:23:30;;;;;;;20.83;10.73;;;2.10;99.90;;;;;;4991572;28;20051;-84
2024/01/20 10:26:02;;;;;;;24.63;12.18;;;2.60;99.90;;;;;;5003005;28;20134;-83
2024/01/20 10:28:28;;;;;;;21.40;10.93;;;2.20;99.90;;;;;;4999593;28;20118;-84
2024/01/20 10:30:54;;;;;;;20.00;11.25;;;2.20;99.90;;;;;;4946193;28;20472;-84
2024/01/20 10:33:20;;;;;;;20.58;10.85;;;2.20;99.90;;;;;;5006906;28;20075;-84
2024/01/20 10:35:46;;;;;;;19.42;10.90;;;3.00;99.90;;;;;;4952967;28;20053;-84
2024/01/20 10:38:20;;;;;;;24.25;12.38;;;2.20;99.90;;;;;;4967697;28;21558;-84
2024/01/20 10:40:53;;;;;;;21.63;11.35;;;2.30;99.90;;;;;;4984589;28;20558;-84
2024/01/20 10:43:19;;;;;;;23.33;11.40;;;3.60;99.90;;;;;;5002897;28;20548;-84
2024/01/20 10:45:59;;;;;;;20.67;10.50;;;3.80;99.90;;;;;;4954831;28;20038;-83
2024/01/20 10:48:27;;;;;;;20.35;10.75;;;2.30;99.90;;;;;;4994395;28;20082;-83
2024/01/20 10:50:58;;;;;;;20.25;10.63;;;4.00;99.90;;;;;;4968109;28;20038;-84
2024/01/20 10:53:26;;;;;;;22.92;11.57;;;2.40;99.90;;;;;;4999576;28;20403;-84
2024/01/20 10:55:52;;;;;;;19.17;9.43;;;2.40;99.90;;;;;;5021524;28;20522;-84
2024/01/20 10:58:23;;;;;;;19.92;10.60;;;2.40;99.90;;;;;;5018043;28;20034;-84
2024/01/20 11:00:50;;;;;;;22.77;10.93;;;3.60;99.90;;;;;;5000573;28;20100;-84
2024/01/20 11:03:17;;;;;;;20.00;11.00;;;3.50;99.90;;;;;;4998404;28;20035;-84
2024/01/20 11:05:47;;;;;;;21.02;11.20;;;2.40;99.90;;;;;;4969064;28;20514;-84
2024/01/20 11:08:13;;;;;;;20.08;10.65;;;2.50;99.90;;;;;;4980491;28;20113;-84
2024/01/20 11:10:40;;;;;;;20.92;10.63;;;2.80;99.90;;;;;;4954857;28;20117;-84
2024/01/20 11:13:08;;;;;;;19.48;9.60;;;2.50;99.90;;;;;;4995876;28;20558;-84
2024/01/20 11:15:34;;;;;;;19.90;10.57;;;2.50;99.90;;;;;;5007878;28;20053;-84
2024/01/20 11:18:00;;;;;;;25.30;11.90;;;2.50;99.90;;;;;;4952213;28;20035;-84
2024/01/20 11:20:27;;;;;;;20.60;11.15;;;2.50;99.90;;;;;;4953058;28;20042;-84
2024/01/20 11:22:56;;;;;;;19.80;10.95;;;2.40;99.90;;;;;;4996115;28;20077;-84
2024/01/20 11:25:24;;;;;;;20.67;10.88;;;2.40;99.90;;;;;;4985353;28;20113;-84
2024/01/20 11:27:54;;;;;;;21.83;11.35;;;2.50;99.90;;;;;;4951118;28;20031;-83
2024/01/20 11:30:29;;;;;;;21.35;10.98;;;2.50;99.90;;;;;;4984575;28;20400;-84
2024/01/20 11:32:57;;;;;;;19.67;11.07;;;2.40;99.90;;;;;;4986186;28;20038;-84
2024/01/20 11:35:23;;;;;;;22.50;11.98;;;2.60;99.90;;;;;;4969438;28;20085;-84
2024/01/20 11:37:50;;;;;;;21.08;11.32;;;2.40;99.90;;;;;;4999909;28;20041;-84
2024/01/20 11:40:16;;;;;;;21.77;11.70;;;2.40;99.90;;;;;;4994518;28;20622;-84
2024/01/20 11:42:41;;;;;;;21.55;11.93;;;3.80;99.90;;;;;;4983982;28;20143;-84
2024/01/20 11:45:07;;;;;;;22.45;12.35;;;2.40;99.90;;;;;;4967641;28;20038;-84
2024/01/20 11:47:34;;;;;;;23.23;12.40;;;2.50;99.90;;;;;;4969512;28;20034;-84
2024/01/20 11:50:01;;;;;;;23.10;12.55;;;2.90;99.90;;;;;;4949615;28;20035;-84
2024/01/20 11:52:27;;;;;;;22.10;12.27;;;2.50;99.90;;;;;;4999378;28;20665;-84
2024/01/20 11:54:53;;;;;;;21.63;12.57;;;2.40;99.90;;;;;;4962664;28;20086;-84
2024/01/20 11:57:20;;;;;;;21.30;11.30;;;4.30;99.90;;;;;;4984019;28;20046;-84
2024/01/20 11:59:46;;;;;;;22.52;12.60;;;2.90;99.90;;;;;;4952791;28;20054;-84
2024/01/20 12:02:11;;;;;;;23.10;12.07;;;2.40;99.90;;;;;;4998186;28;20042;-84
2024/01/20 12:04:38;;;;;;;24.25;12.70;;;2.40;99.90;;;;;;4983754;28;20435;-84
2024/01/20 12:07:04;;;;;;;24.95;11.98;;;2.80;99.90;;;;;;5018308;28;20074;-83
2024/01/20 12:09:30;;;;;;;21.75;11.57;;;2.30;99.90;;;;;;4955248;28;20050;-84
2024/01/20 12:11:56;;;;;;;24.92;13.05;;;2.70;99.90;;;;;;5000501;28;20050;-83
2024/01/20 12:14:22;;;;;;;23.05;13.18;;;2.40;99.90;;;;;;4961088;28;20046;-84
2024/01/20 12:16:49;;;;;;;23.02;13.10;;;3.20;99.90;;;;;;4967491;28;20053;-83
2024/01/20 12:19:16;;;;;;;24.17;13.15;;;3.40;99.90;;;;;;4968498;28;20365;-84
2024/01/20 12:21:42;;;;;;;25.15;13.05;;;2.30;99.90;;;;;;4982769;28;20189;-84
2024/01/20 12:24:11;;;;;;;23.38;13.07;;;2.30;99.90;;;;;;4950661;28;20568;-84
2024/01/20 12:26:37;;;;;;;22.75;12.85;;;2.40;99.90;;;;;;4997956;28;20029;-84
2024/01/20 12:29:03;;;;;;;19.98;11.98;;;2.40;99.90;;;;;;4951454;28;20740;-84
2024/01/20 12:31:30;;;;;;;24.33;13.73;;;3.60;99.90;;;;;;5012445;28;20045;-84
2024/01/20 12:33:56;;;;;;;22.30;12.75;;;2.80;99.90;;;;;;4993048;28;20035;-83